createdAt,value
2016-08-31T00:00:16.458Z,86.13
2016-08-31T00:01:17.171Z,86.13
2016-08-31T00:02:16.446Z,86.13
2016-08-31T00:03:17.150Z,85.75
2016-08-31T00:04:17.128Z,85.65
2016-08-31T00:05:17.104Z,85.17
2016-08-31T00:06:17.099Z,85.75
2016-08-31T00:07:17.081Z,85.65
2016-08-31T00:08:17.064Z,85.46
2016-08-31T00:09:17.054Z,84.88
2016-08-31T00:10:16.342Z,85.07
2016-08-31T00:11:16.309Z,85.27
2016-08-31T00:12:17.022Z,85.36
2016-08-31T00:13:16.278Z,85.07
2016-08-31T00:14:16.347Z,85.75
2016-08-31T00:15:16.257Z,85.27
2016-08-31T00:16:16.969Z,85.61
2016-08-31T00:17:16.951Z,85.71
2016-08-31T00:18:16.936Z,85.22
2016-08-31T00:19:16.923Z,85.55
2016-08-31T00:20:16.195Z,85.27
2016-08-31T00:21:16.181Z,85.46
2016-08-31T00:22:16.168Z,85.22
2016-08-31T00:23:16.163Z,85.13
2016-08-31T00:24:16.143Z,85.13
2016-08-31T00:25:16.834Z,85.65
2016-08-31T00:26:16.822Z,85.8
2016-08-31T00:27:16.813Z,85.99
2016-08-31T00:28:16.795Z,86.09
2016-08-31T00:29:16.071Z,86.09
2016-08-31T00:30:16.776Z,86.18
2016-08-31T00:31:16.044Z,86.28
2016-08-31T00:32:16.746Z,86.66
2016-08-31T00:33:16.740Z,86.95
2016-08-31T00:34:16.712Z,86.28
2016-08-31T00:35:16.705Z,86.28
2016-08-31T00:36:16.697Z,85.89
2016-08-31T00:37:16.679Z,85.99
2016-08-31T00:38:16.673Z,86.57
2016-08-31T00:39:16.645Z,86.47
2016-08-31T00:40:16.639Z,86.28
2016-08-31T00:41:15.911Z,86.38
2016-08-31T00:42:16.608Z,86.47
2016-08-31T00:43:16.592Z,86.47
2016-08-31T00:44:16.588Z,86.72
2016-08-31T00:45:16.562Z,87.49
2016-08-31T00:46:15.838Z,87.1
2016-08-31T00:47:16.536Z,87.01
2016-08-31T00:48:16.535Z,87.1
2016-08-31T00:49:16.516Z,86.91
2016-08-31T00:50:16.494Z,87.01
2016-08-31T00:51:15.781Z,86.43
2016-08-31T00:52:16.475Z,86.72
2016-08-31T00:53:15.753Z,86.91
2016-08-31T00:54:16.447Z,86.62
2016-08-31T00:55:16.420Z,86.62
2016-08-31T00:56:15.697Z,86.62
2016-08-31T00:57:16.417Z,87.01
2016-08-31T00:58:16.386Z,87.01
2016-08-31T00:59:16.377Z,87.1
2016-08-31T01:00:16.359Z,87.49
2016-08-31T01:01:16.351Z,87.29
2016-08-31T01:02:16.336Z,87.39
2016-08-31T01:03:16.325Z,87.19
2016-08-31T01:04:16.301Z,87.77
2016-08-31T01:05:16.299Z,88.16
2016-08-31T01:06:16.294Z,88.25
2016-08-31T01:07:16.266Z,88.16
2016-08-31T01:08:16.255Z,87.68
2016-08-31T01:09:15.515Z,87.68
2016-08-31T01:10:16.228Z,88.35
2016-08-31T01:11:16.206Z,88.06
2016-08-31T01:12:16.255Z,87.39
2016-08-31T01:13:16.185Z,87.29
2016-08-31T01:14:16.194Z,87.39
2016-08-31T01:15:15.439Z,88.35
2016-08-31T01:16:16.150Z,88.35
2016-08-31T01:17:16.125Z,87.77
2016-08-31T01:18:16.121Z,88.16
2016-08-31T01:19:16.089Z,88.54
2016-08-31T01:20:16.087Z,88.64
2016-08-31T01:21:16.066Z,89.12
2016-08-31T01:22:16.059Z,88.45
2016-08-31T01:23:16.045Z,88.59
2016-08-31T01:24:16.026Z,89.02
2016-08-31T01:25:15.300Z,88.64
2016-08-31T01:26:15.996Z,88.64
2016-08-31T01:27:15.977Z,89.17
2016-08-31T01:28:15.982Z,89.07
2016-08-31T01:29:15.955Z,89.65
2016-08-31T01:30:15.221Z,89.07
2016-08-31T01:31:15.926Z,90.03
2016-08-31T01:32:15.918Z,88.79
2016-08-31T01:33:15.911Z,89.17
2016-08-31T01:34:15.889Z,89.17
2016-08-31T01:35:15.876Z,89.17
2016-08-31T01:36:15.140Z,89.07
2016-08-31T01:37:15.862Z,89.26
2016-08-31T01:38:15.834Z,88.88
2016-08-31T01:39:15.818Z,89.07
2016-08-31T01:40:16.027Z,88.98
2016-08-31T01:41:15.786Z,88.88
2016-08-31T01:42:15.774Z,88.49
2016-08-31T01:43:15.754Z,88.98
2016-08-31T01:44:15.744Z,88.49
2016-08-31T01:45:15.016Z,89.07
2016-08-31T01:46:15.072Z,88.79
2016-08-31T01:47:14.985Z,89.17
2016-08-31T01:48:15.690Z,89.07
2016-08-31T01:49:15.670Z,88.79
2016-08-31T01:50:15.675Z,88.69
2016-08-31T01:51:15.650Z,89.07
2016-08-31T01:52:14.924Z,88.79
2016-08-31T01:53:15.614Z,89.26
2016-08-31T01:54:15.602Z,89.46
2016-08-31T01:55:15.593Z,89.07
2016-08-31T01:56:15.571Z,88.98
2016-08-31T01:57:15.565Z,89.17
2016-08-31T01:58:14.826Z,89.84
2016-08-31T01:59:15.539Z,88.79
2016-08-31T02:00:15.618Z,89.07
2016-08-31T02:01:15.501Z,88.79
2016-08-31T02:02:14.787Z,89.07
2016-08-31T02:03:14.766Z,89.55
2016-08-31T02:04:15.462Z,89.22
2016-08-31T02:05:15.456Z,89.46
2016-08-31T02:06:15.451Z,89.26
2016-08-31T02:07:15.429Z,88.79
2016-08-31T02:08:15.408Z,89.07
2016-08-31T02:09:15.388Z,89.41
2016-08-31T02:10:15.381Z,89.32
2016-08-31T02:11:15.363Z,89.41
2016-08-31T02:12:15.347Z,89.99
2016-08-31T02:13:15.331Z,89.7
2016-08-31T02:14:15.318Z,89.99
2016-08-31T02:15:15.310Z,89.61
2016-08-31T02:16:14.567Z,89.7
2016-08-31T02:17:15.277Z,89.61
2016-08-31T02:18:15.257Z,89.61
2016-08-31T02:19:15.247Z,89.7
2016-08-31T02:20:15.227Z,89.51
2016-08-31T02:21:15.215Z,90.08
2016-08-31T02:22:15.209Z,89.89
2016-08-31T02:23:15.186Z,90.47
2016-08-31T02:24:15.177Z,89.79
2016-08-31T02:25:15.177Z,90.08
2016-08-31T02:26:15.145Z,89.89
2016-08-31T02:27:15.146Z,90.37
2016-08-31T02:28:15.115Z,90.37
2016-08-31T02:29:15.105Z,90.47
2016-08-31T02:30:15.098Z,90.37
2016-08-31T02:31:14.352Z,90.66
2016-08-31T02:32:15.067Z,90.28
2016-08-31T02:33:15.035Z,90.66
2016-08-31T02:34:15.028Z,90.47
2016-08-31T02:35:15.078Z,90.95
2016-08-31T02:36:15.001Z,91.05
2016-08-31T02:37:15.001Z,91.52
2016-08-31T02:38:14.961Z,91.62
2016-08-31T02:39:14.244Z,91.14
2016-08-31T02:40:14.939Z,91.42
2016-08-31T02:41:14.923Z,91.81
2016-08-31T02:42:14.910Z,91.86
2016-08-31T02:43:14.191Z,92.05
2016-08-31T02:44:14.878Z,92.15
2016-08-31T02:45:14.870Z,91.67
2016-08-31T02:46:14.846Z,92.05
2016-08-31T02:47:14.836Z,91.67
2016-08-31T02:48:14.844Z,92.05
2016-08-31T02:49:14.885Z,92.19
2016-08-31T02:50:14.805Z,92.24
2016-08-31T02:51:14.783Z,92.19
2016-08-31T02:52:14.769Z,92.05
2016-08-31T02:53:14.041Z,92.15
2016-08-31T02:54:14.737Z,92.15
2016-08-31T02:55:14.729Z,91.28
2016-08-31T02:56:14.713Z,91.48
2016-08-31T02:57:14.711Z,91.38
2016-08-31T02:58:14.675Z,91.28
2016-08-31T02:59:14.657Z,91.19
2016-08-31T03:00:14.646Z,91.57
2016-08-31T03:01:13.917Z,91.57
2016-08-31T03:02:14.618Z,91.48
2016-08-31T03:03:13.883Z,91.28
2016-08-31T03:04:14.586Z,91.38
2016-08-31T03:05:14.105Z,91.77
2016-08-31T03:06:14.560Z,91.86
2016-08-31T03:07:14.547Z,91.77
2016-08-31T03:08:14.532Z,91.96
2016-08-31T03:09:14.516Z,92.34
2016-08-31T03:10:14.506Z,92.15
2016-08-31T03:11:14.493Z,92.05
2016-08-31T03:12:14.469Z,91.96
2016-08-31T03:13:14.455Z,92.24
2016-08-31T03:14:14.445Z,92.63
2016-08-31T03:15:14.428Z,91.96
2016-08-31T03:16:13.694Z,92.63
2016-08-31T03:17:14.402Z,92.63
2016-08-31T03:18:14.385Z,92.24
2016-08-31T03:19:14.366Z,92.24
2016-08-31T03:20:13.636Z,92.24
2016-08-31T03:21:14.331Z,92.82
2016-08-31T03:22:14.326Z,92.72
2016-08-31T03:23:14.311Z,92.91
2016-08-31T03:24:14.295Z,92.54
2016-08-31T03:25:14.368Z,92.68
2016-08-31T03:26:14.266Z,92.97
2016-08-31T03:27:14.245Z,92.91
2016-08-31T03:28:14.224Z,92.87
2016-08-31T03:29:14.218Z,93.06
2016-08-31T03:30:14.209Z,92.87
2016-08-31T03:31:14.190Z,92.97
2016-08-31T03:32:14.181Z,92.77
2016-08-31T03:33:13.438Z,92.68
2016-08-31T03:34:14.150Z,93.63
2016-08-31T03:35:14.125Z,93.44
2016-08-31T03:36:14.116Z,93.35
2016-08-31T03:37:13.381Z,93.73
2016-08-31T03:38:14.073Z,93.63
2016-08-31T03:39:14.064Z,93.16
2016-08-31T03:40:14.046Z,93.35
2016-08-31T03:41:14.034Z,93.16
2016-08-31T03:42:14.026Z,93.26
2016-08-31T03:43:14.005Z,93.63
2016-08-31T03:44:13.984Z,93.63
2016-08-31T03:45:13.984Z,93.83
2016-08-31T03:46:13.968Z,93.83
2016-08-31T03:47:13.948Z,94.02
2016-08-31T03:48:13.934Z,94.02
2016-08-31T03:49:13.909Z,93.83
2016-08-31T03:50:13.910Z,94.21
2016-08-31T03:51:13.895Z,94.5
2016-08-31T03:52:13.870Z,94.31
2016-08-31T03:53:13.856Z,94.02
2016-08-31T03:54:13.833Z,94.12
2016-08-31T03:55:13.833Z,94.5
2016-08-31T03:56:13.804Z,94.59
2016-08-31T03:57:13.076Z,94.4
2016-08-31T03:58:13.791Z,94.4
2016-08-31T03:59:13.755Z,94.31
2016-08-31T04:00:13.745Z,94.5
2016-08-31T04:01:13.741Z,94.07
2016-08-31T04:02:13.012Z,94.69
2016-08-31T04:03:12.990Z,94.5
2016-08-31T04:04:12.970Z,94.45
2016-08-31T04:05:13.674Z,94.26
2016-08-31T04:06:13.658Z,94.55
2016-08-31T04:07:13.637Z,94.35
2016-08-31T04:08:13.626Z,94.84
2016-08-31T04:09:13.617Z,94.55
2016-08-31T04:10:13.836Z,94.74
2016-08-31T04:11:13.590Z,94.84
2016-08-31T04:12:13.560Z,94.45
2016-08-31T04:13:13.560Z,94.74
2016-08-31T04:14:13.532Z,94.74
2016-08-31T04:15:13.527Z,94.93
2016-08-31T04:16:13.510Z,95.12
2016-08-31T04:17:12.780Z,95.12
2016-08-31T04:18:13.498Z,95.31
2016-08-31T04:19:13.461Z,94.74
2016-08-31T04:20:12.742Z,95.41
2016-08-31T04:21:13.431Z,94.84
2016-08-31T04:22:13.431Z,95.03
2016-08-31T04:23:13.398Z,94.84
2016-08-31T04:24:13.436Z,94.74
2016-08-31T04:25:12.668Z,94.74
2016-08-31T04:26:13.346Z,94.84
2016-08-31T04:27:12.617Z,94.93
2016-08-31T04:28:13.375Z,94.26
2016-08-31T04:29:12.598Z,94.07
2016-08-31T04:30:13.340Z,94.07
2016-08-31T04:31:12.571Z,94.55
2016-08-31T04:32:12.546Z,94.17
2016-08-31T04:33:13.240Z,94.26
2016-08-31T04:34:13.262Z,94.35
2016-08-31T04:35:12.490Z,94.07
2016-08-31T04:36:12.499Z,94.45
2016-08-31T04:37:13.176Z,95.12
2016-08-31T04:38:13.178Z,94.84
2016-08-31T04:39:12.434Z,94.84
2016-08-31T04:40:13.178Z,95.03
2016-08-31T04:41:13.118Z,95.22
2016-08-31T04:42:13.155Z,95.12
2016-08-31T04:43:13.089Z,95.22
2016-08-31T04:44:13.109Z,95.03
2016-08-31T04:45:12.343Z,95.7
2016-08-31T04:46:13.048Z,95.51
2016-08-31T04:47:12.310Z,95.79
2016-08-31T04:48:13.012Z,95.6
2016-08-31T04:49:12.996Z,95.7
2016-08-31T04:50:12.977Z,95.51
2016-08-31T04:51:12.960Z,95.7
2016-08-31T04:52:12.945Z,95.98
2016-08-31T04:53:12.937Z,96.18
2016-08-31T04:54:12.919Z,96.08
2016-08-31T04:55:12.907Z,95.6
2016-08-31T04:56:12.887Z,95.51
2016-08-31T04:57:12.868Z,96.08
2016-08-31T04:58:12.855Z,96.37
2016-08-31T04:59:12.850Z,96.37
2016-08-31T05:00:12.848Z,96.18
2016-08-31T05:01:12.805Z,95.98
2016-08-31T05:02:12.800Z,95.7
2016-08-31T05:03:12.774Z,95.89
2016-08-31T05:04:12.770Z,96.18
2016-08-31T05:05:12.747Z,96.18
2016-08-31T05:06:12.016Z,96.32
2016-08-31T05:07:12.713Z,96.03
2016-08-31T05:08:12.711Z,96.13
2016-08-31T05:09:12.680Z,96.22
2016-08-31T05:10:11.960Z,96.22
2016-08-31T05:11:12.646Z,95.79
2016-08-31T05:12:12.637Z,96.56
2016-08-31T05:13:12.629Z,95.98
2016-08-31T05:14:12.607Z,95.89
2016-08-31T05:15:12.587Z,96.03
2016-08-31T05:16:12.582Z,96.32
2016-08-31T05:17:12.561Z,96.08
2016-08-31T05:18:12.543Z,95.79
2016-08-31T05:19:12.531Z,95.6
2016-08-31T05:20:12.514Z,94.93
2016-08-31T05:21:12.498Z,95.31
2016-08-31T05:22:12.491Z,95.7
2016-08-31T05:23:12.481Z,95.51
2016-08-31T05:24:12.450Z,95.6
2016-08-31T05:25:12.434Z,95.56
2016-08-31T05:26:12.420Z,95.84
2016-08-31T05:27:12.402Z,95.56
2016-08-31T05:28:12.471Z,95.51
2016-08-31T05:29:12.380Z,96.18
2016-08-31T05:30:12.359Z,96.32
2016-08-31T05:31:12.365Z,95.07
2016-08-31T05:32:12.421Z,95.56
2016-08-31T05:33:12.307Z,96.32
2016-08-31T05:34:12.291Z,97.28
2016-08-31T05:35:12.295Z,96.47
2016-08-31T05:36:12.287Z,96.61
2016-08-31T05:37:12.247Z,96.61
2016-08-31T05:38:12.234Z,96.99
2016-08-31T05:39:12.213Z,96.7
2016-08-31T05:40:12.205Z,97.09
2016-08-31T05:41:12.195Z,96.32
2016-08-31T05:42:12.164Z,95.84
2016-08-31T05:43:11.443Z,96.13
2016-08-31T05:44:12.145Z,95.84
2016-08-31T05:45:12.125Z,95.51
2016-08-31T05:46:12.107Z,95.41
2016-08-31T05:47:12.100Z,94.07
2016-08-31T05:48:12.073Z,94.55
2016-08-31T05:49:12.065Z,93.98
2016-08-31T05:50:12.044Z,94.55
2016-08-31T05:51:12.031Z,94.64
2016-08-31T05:52:11.299Z,94.17
2016-08-31T05:53:11.997Z,94.55
2016-08-31T05:54:11.989Z,94.35
2016-08-31T05:55:11.976Z,94.07
2016-08-31T05:56:11.956Z,94.07
2016-08-31T05:57:11.940Z,93.59
2016-08-31T05:58:11.926Z,93.78
2016-08-31T05:59:11.911Z,93.35
2016-08-31T06:00:11.893Z,93.83
2016-08-31T06:01:11.869Z,93.98
2016-08-31T06:02:11.862Z,93.54
2016-08-31T06:03:11.842Z,93.83
2016-08-31T06:04:11.120Z,94.55
2016-08-31T06:05:11.812Z,94.45
2016-08-31T06:06:11.089Z,94.17
2016-08-31T06:07:11.782Z,94.07
2016-08-31T06:08:11.768Z,94.35
2016-08-31T06:09:11.755Z,94.26
2016-08-31T06:10:11.766Z,94.26
2016-08-31T06:11:11.007Z,94.07
2016-08-31T06:12:11.699Z,93.98
2016-08-31T06:13:11.700Z,94.07
2016-08-31T06:14:11.674Z,94.07
2016-08-31T06:15:11.666Z,93.78
2016-08-31T06:16:10.927Z,94.17
2016-08-31T06:17:11.631Z,93.44
2016-08-31T06:18:10.920Z,93.06
2016-08-31T06:19:11.601Z,93.01
2016-08-31T06:20:11.591Z,92.87
2016-08-31T06:21:10.855Z,92.87
2016-08-31T06:22:11.554Z,93.44
2016-08-31T06:23:10.828Z,92.72
2016-08-31T06:24:11.525Z,92.63
2016-08-31T06:25:11.510Z,92.54
2016-08-31T06:26:11.497Z,92.24
2016-08-31T06:27:11.476Z,92.54
2016-08-31T06:28:11.465Z,91.86
2016-08-31T06:29:10.756Z,91.96
2016-08-31T06:30:11.450Z,92.34
2016-08-31T06:31:11.487Z,92.63
2016-08-31T06:32:11.406Z,92.54
2016-08-31T06:33:10.685Z,92.34
2016-08-31T06:34:10.659Z,92.15
2016-08-31T06:35:11.391Z,92.44
2016-08-31T06:36:11.346Z,93.06
2016-08-31T06:37:11.381Z,93.35
2016-08-31T06:38:11.319Z,93.16
2016-08-31T06:39:11.348Z,93.54
2016-08-31T06:40:11.283Z,92.91
2016-08-31T06:41:11.271Z,91.77
2016-08-31T06:42:11.248Z,91.57
2016-08-31T06:43:10.558Z,91.48
2016-08-31T06:44:11.219Z,91.96
2016-08-31T06:45:11.247Z,91.09
2016-08-31T06:46:11.190Z,91.38
2016-08-31T06:47:11.198Z,91.86
2016-08-31T06:48:11.164Z,91.86
2016-08-31T06:49:11.156Z,91.57
2016-08-31T06:50:10.436Z,90.81
2016-08-31T06:51:11.149Z,90.95
2016-08-31T06:52:10.390Z,90.66
2016-08-31T06:53:11.112Z,90.28
2016-08-31T06:54:11.076Z,90.08
2016-08-31T06:55:11.062Z,88.74
2016-08-31T06:56:11.044Z,87.15
2016-08-31T06:57:11.031Z,82.09
2016-08-31T06:58:11.025Z,72.37
2016-08-31T06:59:10.292Z,66.47
2016-08-31T07:00:11.197Z,63.49
2016-08-31T07:01:10.279Z,60.84
2016-08-31T07:02:10.983Z,57.36
2016-08-31T07:03:11.028Z,57.46
2016-08-31T07:04:10.967Z,55.93
2016-08-31T07:05:10.963Z,54.58
2016-08-31T07:06:10.240Z,54.16
2016-08-31T07:07:10.938Z,53.19
2016-08-31T07:08:10.930Z,52.95
2016-08-31T07:09:10.926Z,52.75
2016-08-31T07:10:10.922Z,52.17
2016-08-31T07:11:10.905Z,51.43
2016-08-31T07:12:10.192Z,50.88
2016-08-31T07:13:10.908Z,51.07
2016-08-31T07:14:10.180Z,52.73
2016-08-31T07:15:10.909Z,52.58
2016-08-31T07:16:10.945Z,52.22
2016-08-31T07:17:10.876Z,54.77
2016-08-31T07:18:10.151Z,57.46
2016-08-31T07:19:10.140Z,57.33
2016-08-31T07:20:11.045Z,57.33
2016-08-31T07:21:10.848Z,57.1
2016-08-31T07:22:10.835Z,57.43
2016-08-31T07:23:10.833Z,55.9
2016-08-31T07:24:10.117Z,56.12
2016-08-31T07:25:10.813Z,56.32
2016-08-31T07:26:10.123Z,56.12
2016-08-31T07:27:10.090Z,56.71
2016-08-31T07:28:10.109Z,57.17
2016-08-31T07:29:10.793Z,59.74
2016-08-31T07:30:10.065Z,60.64
2016-08-31T07:31:10.780Z,61.32
2016-08-31T07:32:10.799Z,61.81
2016-08-31T07:33:10.785Z,61.13
2016-08-31T07:34:10.054Z,61.22
2016-08-31T07:35:10.758Z,62.33
2016-08-31T07:36:10.754Z,63.56
2016-08-31T07:37:10.745Z,64.01
2016-08-31T07:38:10.732Z,64.34
2016-08-31T07:39:10.733Z,63.37
2016-08-31T07:40:10.738Z,63.85
2016-08-31T07:41:10.734Z,65.11
2016-08-31T07:42:10.007Z,63.95
2016-08-31T07:43:10.716Z,63.46
2016-08-31T07:44:10.719Z,63.82
2016-08-31T07:45:10.716Z,64.24
2016-08-31T07:46:10.699Z,64.79
2016-08-31T07:47:09.989Z,65.34
2016-08-31T07:48:09.986Z,64.59
2016-08-31T07:49:10.691Z,64.24
2016-08-31T07:50:09.973Z,63.2
2016-08-31T07:51:09.984Z,61.42
2016-08-31T07:52:10.695Z,60.8
2016-08-31T07:53:09.990Z,61.07
2016-08-31T07:54:09.975Z,59.01
2016-08-31T07:55:09.964Z,58.98
2016-08-31T07:56:10.687Z,58.18
2016-08-31T07:57:10.689Z,57.75
2016-08-31T07:58:10.685Z,56.57
2016-08-31T07:59:10.684Z,55.33
2016-08-31T08:00:10.693Z,54.77
2016-08-31T08:01:10.683Z,56.64
2016-08-31T08:02:09.976Z,56.87
2016-08-31T08:03:09.969Z,56.37
2016-08-31T08:04:10.062Z,55.16
2016-08-31T08:05:11.343Z,53.09
2016-08-31T08:06:10.011Z,52.44
2016-08-31T08:07:12.732Z,51.56
2016-08-31T08:08:09.981Z,51.63
2016-08-31T08:09:10.697Z,51.66
2016-08-31T08:10:10.697Z,50.88
2016-08-31T08:11:10.693Z,50.44
2016-08-31T08:12:10.697Z,50.46
2016-08-31T08:13:09.978Z,50.05
2016-08-31T08:14:10.698Z,49.85
2016-08-31T08:15:09.976Z,49.46
2016-08-31T08:16:10.696Z,51.29
2016-08-31T08:17:10.694Z,52.97
2016-08-31T08:18:10.696Z,52.85
2016-08-31T08:19:10.703Z,52.09
2016-08-31T08:20:10.740Z,50.88
2016-08-31T08:21:10.716Z,52.12
2016-08-31T08:22:09.993Z,52.75
2016-08-31T08:23:09.999Z,51.04
2016-08-31T08:24:10.721Z,50.1
2016-08-31T08:25:09.998Z,51.17
2016-08-31T08:26:10.730Z,52.92
2016-08-31T08:27:10.714Z,51.48
2016-08-31T08:28:10.006Z,51.17
2016-08-31T08:29:10.015Z,51.56
2016-08-31T08:30:10.720Z,52.87
2016-08-31T08:31:10.729Z,54.11
2016-08-31T08:32:10.015Z,53.89
2016-08-31T08:33:10.722Z,52.67
2016-08-31T08:34:10.753Z,51.56
2016-08-31T08:35:10.840Z,51.09
2016-08-31T08:36:10.745Z,52.07
2016-08-31T08:37:10.734Z,52.87
2016-08-31T08:38:10.736Z,51.26
2016-08-31T08:39:10.756Z,49.58
2016-08-31T08:40:10.026Z,49.41
2016-08-31T08:41:10.738Z,49.26
2016-08-31T08:42:10.738Z,49.9
2016-08-31T08:43:10.745Z,49.07
2016-08-31T08:44:10.749Z,50
2016-08-31T08:45:10.040Z,49.71
2016-08-31T08:46:10.776Z,49.29
2016-08-31T08:47:10.761Z,52.48
2016-08-31T08:48:10.056Z,53.79
2016-08-31T08:49:10.779Z,53.14
2016-08-31T08:50:10.780Z,52.24
2016-08-31T08:51:10.837Z,52.17
2016-08-31T08:52:10.774Z,53.26
2016-08-31T08:53:10.780Z,51.34
2016-08-31T08:54:10.771Z,50.24
2016-08-31T08:55:10.809Z,50.29
2016-08-31T08:56:10.784Z,51.8
2016-08-31T08:57:10.784Z,52.07
2016-08-31T08:58:10.784Z,51.75
2016-08-31T08:59:10.060Z,51.7
2016-08-31T09:00:12.870Z,52.44
2016-08-31T09:01:10.075Z,54.23
2016-08-31T09:02:10.800Z,54.76
2016-08-31T09:03:10.796Z,55.15
2016-08-31T09:04:10.847Z,55.25
2016-08-31T09:05:10.814Z,54.21
2016-08-31T09:06:10.089Z,52.53
2016-08-31T09:07:10.802Z,51.73
2016-08-31T09:08:10.801Z,50.83
2016-08-31T09:09:10.803Z,52.75
2016-08-31T09:10:10.171Z,52.46
2016-08-31T09:11:10.096Z,52.31
2016-08-31T09:12:10.828Z,51.86
2016-08-31T09:13:10.813Z,50.34
2016-08-31T09:14:10.841Z,49.48
2016-08-31T09:15:10.814Z,49.99
2016-08-31T09:16:10.827Z,49.63
2016-08-31T09:17:10.829Z,50.15
2016-08-31T09:18:10.887Z,49.77
2016-08-31T09:19:10.111Z,49.51
2016-08-31T09:20:10.122Z,48.65
2016-08-31T09:21:10.831Z,49.63
2016-08-31T09:22:10.880Z,48.58
2016-08-31T09:23:10.848Z,48.7
2016-08-31T09:24:10.849Z,48.65
2016-08-31T09:25:10.139Z,47.85
2016-08-31T09:26:10.846Z,47.85
2016-08-31T09:27:10.851Z,48.07
2016-08-31T09:28:10.856Z,48.19
2016-08-31T09:29:10.152Z,47.01
2016-08-31T09:30:10.864Z,48.6
2016-08-31T09:31:10.910Z,49.68
2016-08-31T09:32:10.167Z,50.48
2016-08-31T09:33:10.160Z,51.04
2016-08-31T09:34:10.160Z,50.6
2016-08-31T09:35:10.876Z,49.78
2016-08-31T09:36:10.886Z,50.24
2016-08-31T09:37:10.171Z,49.51
2016-08-31T09:38:10.910Z,46.82
2016-08-31T09:39:10.890Z,46.37
2016-08-31T09:40:10.900Z,45.81
2016-08-31T09:41:10.892Z,45.25
2016-08-31T09:42:10.899Z,45.27
2016-08-31T09:43:10.937Z,46.44
2016-08-31T09:44:10.898Z,45.8
2016-08-31T09:45:10.896Z,46.17
2016-08-31T09:46:10.904Z,45.12
2016-08-31T09:47:10.187Z,45.04
2016-08-31T09:48:10.901Z,43.66
2016-08-31T09:49:10.910Z,43.49
2016-08-31T09:50:10.198Z,42.8
2016-08-31T09:51:10.196Z,44.09
2016-08-31T09:52:10.917Z,44.83
2016-08-31T09:53:10.914Z,44.46
2016-08-31T09:54:10.915Z,44.66
2016-08-31T09:55:10.946Z,43.8
2016-08-31T09:56:10.936Z,43.92
2016-08-31T09:57:10.206Z,45.56
2016-08-31T09:58:10.921Z,44.85
2016-08-31T09:59:10.221Z,45.93
2016-08-31T10:00:11.088Z,45.56
2016-08-31T10:01:10.929Z,45.56
2016-08-31T10:02:10.209Z,45.19
2016-08-31T10:03:10.937Z,44.43
2016-08-31T10:04:10.220Z,43.96
2016-08-31T10:05:10.938Z,45.04
2016-08-31T10:06:10.226Z,44.74
2016-08-31T10:07:10.218Z,43.88
2016-08-31T10:08:10.937Z,43.88
2016-08-31T10:09:10.219Z,44.82
2016-08-31T10:10:10.932Z,44.94
2016-08-31T10:11:10.228Z,46.22
2016-08-31T10:12:10.220Z,47.01
2016-08-31T10:13:11.051Z,46.77
2016-08-31T10:14:10.221Z,47.63
2016-08-31T10:15:10.950Z,47.72
2016-08-31T10:16:10.934Z,47.26
2016-08-31T10:17:10.219Z,47.65
2016-08-31T10:18:10.214Z,47.43
2016-08-31T10:19:10.959Z,46.5
2016-08-31T10:20:10.206Z,46.13
2016-08-31T10:21:10.929Z,45.83
2016-08-31T10:22:10.928Z,45.34
2016-08-31T10:23:10.925Z,45.07
2016-08-31T10:24:10.208Z,45.17
2016-08-31T10:25:10.917Z,45.02
2016-08-31T10:26:10.197Z,44.65
2016-08-31T10:27:10.929Z,45.02
2016-08-31T10:28:10.198Z,45.31
2016-08-31T10:29:10.906Z,45.24
2016-08-31T10:30:11.599Z,45.92
2016-08-31T10:31:10.900Z,46.22
2016-08-31T10:32:10.214Z,45.36
2016-08-31T10:33:10.899Z,43.79
2016-08-31T10:34:10.178Z,43.8
2016-08-31T10:35:10.960Z,44.01
2016-08-31T10:36:10.173Z,43.51
2016-08-31T10:37:10.896Z,43.79
2016-08-31T10:38:10.882Z,43.9
2016-08-31T10:39:10.884Z,44.18
2016-08-31T10:40:10.882Z,45.19
2016-08-31T10:41:10.874Z,44.6
2016-08-31T10:42:10.867Z,43.92
2016-08-31T10:43:10.880Z,44.53
2016-08-31T10:44:10.870Z,44.55
2016-08-31T10:45:10.384Z,45.43
2016-08-31T10:46:10.870Z,44.67
2016-08-31T10:47:10.154Z,44.92
2016-08-31T10:48:10.853Z,45.02
2016-08-31T10:49:10.135Z,45.19
2016-08-31T10:50:10.975Z,45
2016-08-31T10:51:10.205Z,44.53
2016-08-31T10:52:10.841Z,44.65
2016-08-31T10:53:10.840Z,45.98
2016-08-31T10:54:10.835Z,46.37
2016-08-31T10:55:10.846Z,46.65
2016-08-31T10:56:10.836Z,47.56
2016-08-31T10:57:10.846Z,46.92
2016-08-31T10:58:10.105Z,47.89
2016-08-31T10:59:10.820Z,48.54
2016-08-31T11:00:10.098Z,47.21
2016-08-31T11:01:10.810Z,45.62
2016-08-31T11:02:10.812Z,44.58
2016-08-31T11:03:10.804Z,43.62
2016-08-31T11:04:10.806Z,45.34
2016-08-31T11:05:10.797Z,44.84
2016-08-31T11:06:10.859Z,44.73
2016-08-31T11:07:10.069Z,44.55
2016-08-31T11:08:10.783Z,46.42
2016-08-31T11:09:10.778Z,45.62
2016-08-31T11:10:10.795Z,45.56
2016-08-31T11:11:10.769Z,45.66
2016-08-31T11:12:10.774Z,45.02
2016-08-31T11:13:10.765Z,44.62
2016-08-31T11:14:10.767Z,44.74
2016-08-31T11:15:10.756Z,44.35
2016-08-31T11:16:10.045Z,44.49
2016-08-31T11:17:10.757Z,43.9
2016-08-31T11:18:10.747Z,44.79
2016-08-31T11:19:10.746Z,44.32
2016-08-31T11:20:11.310Z,44.02
2016-08-31T11:21:10.016Z,45.61
2016-08-31T11:22:10.738Z,46.86
2016-08-31T11:23:10.723Z,47.7
2016-08-31T11:24:10.741Z,46.69
2016-08-31T11:25:11.557Z,46.23
2016-08-31T11:26:10.727Z,45
2016-08-31T11:27:10.737Z,43.15
2016-08-31T11:28:10.706Z,42.39
2016-08-31T11:29:10.703Z,42.32
2016-08-31T11:30:10.705Z,43.27
2016-08-31T11:31:09.980Z,43.57
2016-08-31T11:32:10.709Z,43.37
2016-08-31T11:33:10.695Z,43.18
2016-08-31T11:34:09.967Z,43.26
2016-08-31T11:35:09.975Z,43.35
2016-08-31T11:36:10.679Z,43.62
2016-08-31T11:37:10.681Z,43.05
2016-08-31T11:38:10.674Z,42.32
2016-08-31T11:39:09.952Z,42.39
2016-08-31T11:40:09.958Z,43.45
2016-08-31T11:41:10.668Z,42.86
2016-08-31T11:42:10.659Z,42.58
2016-08-31T11:43:10.659Z,43
2016-08-31T11:44:09.944Z,43.61
2016-08-31T11:45:10.645Z,41.86
2016-08-31T11:46:10.646Z,41.64
2016-08-31T11:47:10.648Z,42.04
2016-08-31T11:48:09.929Z,42.63
2016-08-31T11:49:09.929Z,42.82
2016-08-31T11:50:10.638Z,42.41
2016-08-31T11:51:10.650Z,42.04
2016-08-31T11:52:09.903Z,41.77
2016-08-31T11:53:10.617Z,41.49
2016-08-31T11:54:10.616Z,41.88
2016-08-31T11:55:10.759Z,43.12
2016-08-31T11:56:10.609Z,44.12
2016-08-31T11:57:09.887Z,44.93
2016-08-31T11:58:10.606Z,44.76
2016-08-31T11:59:10.596Z,45.29
2016-08-31T12:00:10.610Z,44.74
2016-08-31T12:01:10.604Z,45.45
2016-08-31T12:02:10.639Z,43.9
2016-08-31T12:03:10.597Z,43.84
2016-08-31T12:04:09.866Z,43.98
2016-08-31T12:05:10.591Z,43.79
2016-08-31T12:06:10.627Z,43.22
2016-08-31T12:07:09.853Z,44.74
2016-08-31T12:08:09.848Z,44.82
2016-08-31T12:09:10.560Z,43.69
2016-08-31T12:10:10.555Z,42.82
2016-08-31T12:11:10.567Z,42.94
2016-08-31T12:12:10.546Z,42.86
2016-08-31T12:13:09.837Z,43.53
2016-08-31T12:14:10.549Z,44.22
2016-08-31T12:15:10.157Z,43.46
2016-08-31T12:16:10.531Z,43.51
2016-08-31T12:17:10.533Z,43.71
2016-08-31T12:18:09.820Z,43.24
2016-08-31T12:19:10.521Z,43.9
2016-08-31T12:20:10.526Z,44.65
2016-08-31T12:21:09.798Z,45.04
2016-08-31T12:22:10.520Z,44.45
2016-08-31T12:23:10.518Z,43.69
2016-08-31T12:24:10.506Z,44.57
2016-08-31T12:25:10.504Z,46
2016-08-31T12:26:09.779Z,46.72
2016-08-31T12:27:09.788Z,47.92
2016-08-31T12:28:10.493Z,48.36
2016-08-31T12:29:09.891Z,48.65
2016-08-31T12:30:10.483Z,48.48
2016-08-31T12:31:10.490Z,46.2
2016-08-31T12:32:10.488Z,45.66
2016-08-31T12:33:10.479Z,44.92
2016-08-31T12:34:09.750Z,43.88
2016-08-31T12:35:10.462Z,44.06
2016-08-31T12:36:09.744Z,43.88
2016-08-31T12:37:09.747Z,44.57
2016-08-31T12:38:10.695Z,44.73
2016-08-31T12:39:10.500Z,44.74
2016-08-31T12:40:10.445Z,44.37
2016-08-31T12:41:10.451Z,43.9
2016-08-31T12:42:10.440Z,43.24
2016-08-31T12:43:10.422Z,42.75
2016-08-31T12:44:09.706Z,43.22
2016-08-31T12:45:09.714Z,42.85
2016-08-31T12:46:10.424Z,43.53
2016-08-31T12:47:10.426Z,42.79
2016-08-31T12:48:10.418Z,42.86
2016-08-31T12:49:10.414Z,43.9
2016-08-31T12:50:09.706Z,45.63
2016-08-31T12:51:10.399Z,47.03
2016-08-31T12:52:10.397Z,45.47
2016-08-31T12:53:09.681Z,45.31
2016-08-31T12:54:09.672Z,46.04